Time;durP1;ratioP1;P1;durP2;ratioP2;P2;SDS_P1;SDS_P2;PMS_P1;PMS_P2;Temp;Humidity;BMP_temperature;BMP_pressure;BME280_temperature;BME280_humidity;BME280_pressure;Samples;Min_cycle;Max_cycle;Signal;HPM_P1;HPM_P2
2023/04/19 00:00:43;;;;;;;0.90;0.40;;;;;;;;;;5027251;28;20176;-75
2023/04/19 00:03:09;;;;;;;1.10;0.50;;;;;;;;;;5019586;28;20030;-76
2023/04/19 00:05:34;;;;;;;1.00;0.50;;;;;;;;;;5016873;28;20842;-76
2023/04/19 00:07:59;;;;;;;1.17;0.40;;;;;;;;;;5004884;28;20440;-75
2023/04/19 00:10:24;;;;;;;1.10;0.50;;;;;;;;;;5004055;28;20060;-75
2023/04/19 00:12:50;;;;;;;1.20;0.50;;;;;;;;;;5022248;28;20188;-75
2023/04/19 00:15:15;;;;;;;1.23;0.60;;;;;;;;;;5000198;28;20112;-76
2023/04/19 00:17:40;;;;;;;1.03;0.60;;;;;;;;;;5015351;28;20041;-75
2023/04/19 00:20:06;;;;;;;1.10;0.57;;;;;;;;;;5024133;28;20036;-75
2023/04/19 00:22:31;;;;;;;1.00;0.47;;;;;;;;;;5026101;28;20034;-76
2023/04/19 00:24:56;;;;;;;1.03;0.50;;;;;;;;;;5025983;28;20057;-76
2023/04/19 00:27:21;;;;;;;0.73;0.40;;;;;;;;;;5006005;28;20033;-75
2023/04/19 00:29:47;;;;;;;1.45;0.50;;;;;;;;;;5016822;28;20038;-75
2023/04/19 00:32:12;;;;;;;1.00;0.47;;;;;;;;;;5014885;28;20028;-75
2023/04/19 00:34:37;;;;;;;1.20;0.43;;;;;;;;;;5017337;28;20112;-75
2023/04/19 00:37:05;;;;;;;1.45;0.50;;;;;;;;;;5016616;28;20641;-76
2023/04/19 00:39:30;;;;;;;1.38;0.60;;;;;;;;;;5015908;28;20030;-76
2023/04/19 00:41:59;;;;;;;1.30;0.60;;;;;;;;;;5024374;28;20405;-76
2023/04/19 00:44:25;;;;;;;1.77;0.70;;;;;;;;;;5013270;28;20347;-75
2023/04/19 00:46:50;;;;;;;1.13;0.57;;;;;;;;;;5019834;28;20033;-75
2023/04/19 00:49:18;;;;;;;1.60;0.73;;;;;;;;;;5023065;28;20276;-76
2023/04/19 00:51:44;;;;;;;0.90;0.60;;;;;;;;;;5005513;28;20391;-76
2023/04/19 00:54:09;;;;;;;0.65;0.47;;;;;;;;;;5023216;28;20120;-75
2023/04/19 00:56:34;;;;;;;1.10;0.50;;;;;;;;;;5022535;28;20029;-75
2023/04/19 00:59:00;;;;;;;1.35;0.57;;;;;;;;;;5014786;28;20041;-76
2023/04/19 01:01:25;;;;;;;1.23;0.50;;;;;;;;;;5014428;28;20037;-75
2023/04/19 01:03:50;;;;;;;1.00;0.40;;;;;;;;;;5012770;28;20294;-75
2023/04/19 01:06:15;;;;;;;1.10;0.53;;;;;;;;;;5020096;28;20037;-75
2023/04/19 01:08:40;;;;;;;1.20;0.40;;;;;;;;;;5022936;28;20025;-76
2023/04/19 01:11:07;;;;;;;1.48;0.70;;;;;;;;;;5018673;28;20049;-75
2023/04/19 01:13:32;;;;;;;0.70;0.30;;;;;;;;;;5011714;28;20069;-75
2023/04/19 01:15:57;;;;;;;0.80;0.53;;;;;;;;;;5020679;28;20064;-75
2023/04/19 01:18:31;;;;;;;0.85;0.43;;;;;;;;;;5003003;28;20292;-75
2023/04/19 01:20:56;;;;;;;0.90;0.70;;;;;;;;;;5005895;28;20110;-75
2023/04/19 01:23:21;;;;;;;0.80;0.40;;;;;;;;;;5020283;28;20045;-76
2023/04/19 01:25:47;;;;;;;1.10;0.40;;;;;;;;;;5016904;28;20037;-75
2023/04/19 01:28:12;;;;;;;0.90;0.40;;;;;;;;;;5022524;28;20119;-76
2023/04/19 01:30:37;;;;;;;1.17;0.50;;;;;;;;;;5022359;28;20034;-75
2023/04/19 01:33:02;;;;;;;0.70;0.50;;;;;;;;;;5022269;28;20041;-76
2023/04/19 01:35:28;;;;;;;0.80;0.50;;;;;;;;;;5015846;28;20303;-76
2023/04/19 01:37:55;;;;;;;1.37;0.50;;;;;;;;;;4972400;28;20648;-76
2023/04/19 01:40:22;;;;;;;0.90;0.40;;;;;;;;;;5020700;28;20059;-75
2023/04/19 01:42:47;;;;;;;0.93;0.45;;;;;;;;;;5021950;28;20025;-75
2023/04/19 01:45:12;;;;;;;1.07;0.60;;;;;;;;;;5019860;28;20026;-76
2023/04/19 01:47:37;;;;;;;0.80;0.50;;;;;;;;;;5021823;28;20017;-75
2023/04/19 01:50:03;;;;;;;0.90;0.40;;;;;;;;;;5016110;28;20123;-75
2023/04/19 01:52:28;;;;;;;0.80;0.40;;;;;;;;;;5022339;28;20275;-76
2023/04/19 01:54:53;;;;;;;0.70;0.40;;;;;;;;;;5002323;28;20404;-75
2023/04/19 01:57:18;;;;;;;0.80;0.40;;;;;;;;;;5022481;28;20856;-75
2023/04/19 01:59:44;;;;;;;0.80;0.40;;;;;;;;;;4999894;28;21110;-75
2023/04/19 02:02:09;;;;;;;0.73;0.50;;;;;;;;;;5014958;28;20300;-75
2023/04/19 02:04:34;;;;;;;0.90;0.40;;;;;;;;;;5007790;28;20189;-75
2023/04/19 02:07:00;;;;;;;1.38;0.50;;;;;;;;;;5021553;28;20029;-75
2023/04/19 02:09:25;;;;;;;1.00;0.50;;;;;;;;;;5008885;28;20480;-76
2023/04/19 02:11:50;;;;;;;0.93;0.50;;;;;;;;;;5022194;28;20029;-75
2023/04/19 02:14:15;;;;;;;0.70;0.50;;;;;;;;;;5018800;28;20052;-77
2023/04/19 02:16:40;;;;;;;1.08;0.40;;;;;;;;;;5014419;28;20276;-76
2023/04/19 02:19:06;;;;;;;1.87;0.40;;;;;;;;;;5021946;28;20026;-76
2023/04/19 02:21:31;;;;;;;1.17;0.50;;;;;;;;;;5022444;28;20067;-76
2023/04/19 02:23:57;;;;;;;0.80;0.50;;;;;;;;;;5017622;28;20060;-76
2023/04/19 02:26:23;;;;;;;1.40;0.57;;;;;;;;;;5022296;28;20013;-76
2023/04/19 02:28:49;;;;;;;0.98;0.40;;;;;;;;;;5012861;28;20104;-76
2023/04/19 02:31:14;;;;;;;1.35;0.40;;;;;;;;;;5012547;28;20023;-76
2023/04/19 02:33:40;;;;;;;1.00;0.40;;;;;;;;;;5021785;28;20005;-75
2023/04/19 02:36:05;;;;;;;0.87;0.50;;;;;;;;;;5021486;28;20062;-75
2023/04/19 02:38:30;;;;;;;0.93;0.50;;;;;;;;;;5021721;28;20729;-74
2023/04/19 02:40:55;;;;;;;0.80;0.50;;;;;;;;;;5011481;28;20038;-75
2023/04/19 02:43:21;;;;;;;0.80;0.35;;;;;;;;;;5019687;28;20087;-76
2023/04/19 02:45:46;;;;;;;0.70;0.40;;;;;;;;;;5021521;28;20464;-77
2023/04/19 02:48:11;;;;;;;0.80;0.40;;;;;;;;;;5021847;28;20067;-76
2023/04/19 02:50:37;;;;;;;0.90;0.43;;;;;;;;;;5021665;28;20013;-76
2023/04/19 02:53:02;;;;;;;1.27;0.47;;;;;;;;;;5001440;28;21190;-76
2023/04/19 02:55:27;;;;;;;1.10;0.40;;;;;;;;;;5017097;28;20108;-76
2023/04/19 02:57:53;;;;;;;0.90;0.50;;;;;;;;;;5003566;28;20273;-76
2023/04/19 03:00:18;;;;;;;1.02;0.50;;;;;;;;;;5016300;28;20018;-76
2023/04/19 03:02:43;;;;;;;1.00;0.40;;;;;;;;;;5020504;28;20409;-76
2023/04/19 03:05:09;;;;;;;1.13;0.37;;;;;;;;;;5013178;28;20791;-76
2023/04/19 03:07:34;;;;;;;0.90;0.40;;;;;;;;;;4999411;28;20480;-75
2023/04/19 03:09:59;;;;;;;1.25;0.57;;;;;;;;;;4992435;28;20022;-76
2023/04/19 03:12:24;;;;;;;0.90;0.40;;;;;;;;;;5003112;28;20200;-76
2023/04/19 03:14:50;;;;;;;0.93;0.47;;;;;;;;;;5006927;28;20705;-76
2023/04/19 03:17:15;;;;;;;0.57;0.40;;;;;;;;;;5024321;28;20448;-75
2023/04/19 03:19:40;;;;;;;0.87;0.47;;;;;;;;;;5025195;28;20585;-76
2023/04/19 03:22:05;;;;;;;0.93;0.43;;;;;;;;;;5016985;28;20760;-76
2023/04/19 03:24:31;;;;;;;0.70;0.40;;;;;;;;;;5013931;28;20631;-76
2023/04/19 03:26:56;;;;;;;1.20;0.50;;;;;;;;;;5006039;28;20544;-76
2023/04/19 03:29:21;;;;;;;1.23;0.50;;;;;;;;;;5021001;28;20020;-76
2023/04/19 03:31:47;;;;;;;0.70;0.33;;;;;;;;;;5008316;28;20037;-75
2023/04/19 03:34:12;;;;;;;0.85;0.40;;;;;;;;;;4999506;28;20100;-76
2023/04/19 03:36:37;;;;;;;0.70;0.40;;;;;;;;;;5002770;28;20163;-77
2023/04/19 03:39:03;;;;;;;1.15;0.38;;;;;;;;;;5007599;28;20042;-76
2023/04/19 03:41:28;;;;;;;1.10;0.40;;;;;;;;;;5007100;28;20109;-76
2023/04/19 03:43:53;;;;;;;2.03;0.40;;;;;;;;;;5024869;28;20448;-77
2023/04/19 03:46:19;;;;;;;1.00;0.45;;;;;;;;;;4988934;28;20500;-75
2023/04/19 03:48:44;;;;;;;0.80;0.40;;;;;;;;;;4987767;28;20030;-76
2023/04/19 03:51:09;;;;;;;0.80;0.35;;;;;;;;;;5016932;28;20033;-76
2023/04/19 03:53:35;;;;;;;0.85;0.43;;;;;;;;;;4992712;28;20038;-76
2023/04/19 03:56:00;;;;;;;1.00;0.50;;;;;;;;;;4987155;28;20038;-76
2023/04/19 03:58:25;;;;;;;0.95;0.40;;;;;;;;;;4991882;28;20034;-76
2023/04/19 04:00:52;;;;;;;1.00;0.50;;;;;;;;;;4995599;28;20054;-76
2023/04/19 04:03:17;;;;;;;0.77;0.60;;;;;;;;;;4997402;28;20056;-76
2023/04/19 04:05:42;;;;;;;1.33;0.50;;;;;;;;;;5003446;28;20548;-76
2023/04/19 04:08:08;;;;;;;1.00;0.40;;;;;;;;;;5014885;28;20277;-76
2023/04/19 04:10:33;;;;;;;1.02;0.40;;;;;;;;;;4990873;28;20291;-75
2023/04/19 04:12:58;;;;;;;0.97;0.60;;;;;;;;;;5008149;28;20121;-75
2023/04/19 04:15:23;;;;;;;1.27;0.63;;;;;;;;;;5004313;28;20113;-75
2023/04/19 04:17:49;;;;;;;0.60;0.40;;;;;;;;;;5016543;28;20120;-73
2023/04/19 04:20:15;;;;;;;0.80;0.45;;;;;;;;;;5012980;28;21611;-73
2023/04/19 04:22:45;;;;;;;0.73;0.30;;;;;;;;;;5018049;28;20029;-72
2023/04/19 04:25:11;;;;;;;;;;;;;;;;;;5000567;28;20512;-75
2023/04/19 04:27:36;;;;;;;0.77;0.30;;;;;;;;;;5017661;28;19916;-72
2023/04/19 04:30:01;;;;;;;0.90;0.40;;;;;;;;;;4998135;28;20041;-73
2023/04/19 04:32:27;;;;;;;0.68;0.40;;;;;;;;;;5011883;28;20026;-73
2023/04/19 04:34:52;;;;;;;0.80;0.50;;;;;;;;;;5024429;28;20131;-74
2023/04/19 04:37:17;;;;;;;0.60;0.33;;;;;;;;;;5006454;28;20275;-74
2023/04/19 04:39:42;;;;;;;0.90;0.40;;;;;;;;;;5024102;28;20029;-74
2023/04/19 04:42:08;;;;;;;1.40;0.40;;;;;;;;;;5023482;28;20305;-74
2023/04/19 04:44:34;;;;;;;0.68;0.30;;;;;;;;;;5015164;28;20026;-74
2023/04/19 04:46:59;;;;;;;0.80;0.40;;;;;;;;;;5019150;28;20049;-74
2023/04/19 04:49:24;;;;;;;1.03;0.50;;;;;;;;;;5012967;28;20113;-74
2023/04/19 04:51:50;;;;;;;0.87;0.40;;;;;;;;;;5018721;28;20319;-75
2023/04/19 04:54:15;;;;;;;0.73;0.40;;;;;;;;;;4989451;28;20363;-73
2023/04/19 04:56:41;;;;;;;0.60;0.30;;;;;;;;;;5014082;28;20283;-72
2023/04/19 04:59:06;;;;;;;1.90;0.40;;;;;;;;;;5013388;28;20579;-74
2023/04/19 05:01:32;;;;;;;1.05;0.40;;;;;;;;;;5003018;28;21218;-74
2023/04/19 05:03:57;;;;;;;0.77;0.47;;;;;;;;;;5004864;28;20145;-73
2023/04/19 05:06:22;;;;;;;0.80;0.50;;;;;;;;;;5014062;28;20288;-75
2023/04/19 05:08:47;;;;;;;0.80;0.40;;;;;;;;;;5001745;28;20064;-74
2023/04/19 05:11:12;;;;;;;0.80;0.50;;;;;;;;;;5009478;28;20280;-73
2023/04/19 05:13:38;;;;;;;1.10;0.40;;;;;;;;;;5022938;28;20041;-73
2023/04/19 05:16:03;;;;;;;1.33;0.60;;;;;;;;;;5019089;28;20046;-79
2023/04/19 05:18:28;;;;;;;1.08;0.52;;;;;;;;;;5012864;28;20100;-77
2023/04/19 05:20:54;;;;;;;1.70;0.80;;;;;;;;;;4979212;28;20048;-76
2023/04/19 05:23:19;;;;;;;1.03;0.50;;;;;;;;;;5008899;28;20056;-77
2023/04/19 05:25:44;;;;;;;1.67;0.60;;;;;;;;;;4995156;28;20288;-80
2023/04/19 05:28:09;;;;;;;1.30;0.50;;;;;;;;;;5016618;28;20056;-76
2023/04/19 05:30:34;;;;;;;1.73;0.50;;;;;;;;;;4988618;28;20284;-71
2023/04/19 05:33:00;;;;;;;0.63;0.33;;;;;;;;;;5008910;28;20531;-72
2023/04/19 05:35:25;;;;;;;1.75;0.60;;;;;;;;;;5007621;28;20280;-75
2023/04/19 05:37:50;;;;;;;1.02;0.57;;;;;;;;;;5007247;28;20955;-75
2023/04/19 05:40:16;;;;;;;0.90;0.33;;;;;;;;;;5007406;28;20033;-73
2023/04/19 05:42:41;;;;;;;1.30;0.60;;;;;;;;;;5020485;28;20142;-77
2023/04/19 05:45:07;;;;;;;0.98;0.50;;;;;;;;;;4992917;28;20148;-76
2023/04/19 05:47:32;;;;;;;4.00;0.73;;;;;;;;;;4988806;28;20574;-75
2023/04/19 05:49:57;;;;;;;1.10;0.65;;;;;;;;;;5001009;28;20168;-77
2023/04/19 05:52:22;;;;;;;1.48;0.50;;;;;;;;;;4988955;28;20037;-77
2023/04/19 05:54:48;;;;;;;0.83;0.40;;;;;;;;;;5003552;28;20136;-77
2023/04/19 05:57:13;;;;;;;1.80;0.70;;;;;;;;;;4978855;28;20269;-78
2023/04/19 05:59:38;;;;;;;1.63;0.70;;;;;;;;;;4980781;28;20034;-78
2023/04/19 06:02:03;;;;;;;1.07;0.57;;;;;;;;;;5012145;28;20088;-77
2023/04/19 06:04:29;;;;;;;1.63;0.63;;;;;;;;;;5003033;28;20065;-79
2023/04/19 06:06:54;;;;;;;1.10;0.50;;;;;;;;;;5015170;28;20831;-79
2023/04/19 06:09:19;;;;;;;1.73;0.50;;;;;;;;;;4993739;28;20025;-76
2023/04/19 06:11:45;;;;;;;0.73;0.47;;;;;;;;;;4983819;28;20501;-75
2023/04/19 06:14:12;;;;;;;1.23;0.60;;;;;;;;;;4995719;28;20940;-76
2023/04/19 06:16:37;;;;;;;1.67;0.60;;;;;;;;;;5004534;28;20030;-76
2023/04/19 06:19:02;;;;;;;1.00;0.50;;;;;;;;;;4974184;28;20554;-75
2023/04/19 06:21:31;;;;;;;1.63;0.70;;;;;;;;;;4996901;28;20056;-75
2023/04/19 06:23:56;;;;;;;1.05;0.60;;;;;;;;;;5016012;28;20049;-75
2023/04/19 06:26:22;;;;;;;0.80;0.40;;;;;;;;;;5016031;28;20497;-76
2023/04/19 06:28:47;;;;;;;0.88;0.47;;;;;;;;;;5019648;28;20034;-76
2023/04/19 06:31:12;;;;;;;1.23;0.50;;;;;;;;;;5004562;28;20072;-76
2023/04/19 06:33:37;;;;;;;1.10;0.50;;;;;;;;;;5026619;28;20041;-76
2023/04/19 06:36:03;;;;;;;0.83;0.50;;;;;;;;;;5018251;28;20041;-76
2023/04/19 06:38:28;;;;;;;0.80;0.40;;;;;;;;;;4999408;28;20096;-76
2023/04/19 06:40:53;;;;;;;1.50;0.70;;;;;;;;;;5011242;28;20057;-76
2023/04/19 06:43:20;;;;;;;1.02;0.50;;;;;;;;;;4994573;28;20041;-76
2023/04/19 06:45:45;;;;;;;2.35;0.50;;;;;;;;;;5009468;28;20033;-76
2023/04/19 06:48:10;;;;;;;0.87;0.47;;;;;;;;;;5020826;28;20037;-75
2023/04/19 06:50:35;;;;;;;1.45;0.50;;;;;;;;;;5027265;28;20068;-75
2023/04/19 06:53:01;;;;;;;1.57;0.60;;;;;;;;;;4996754;28;20061;-75
2023/04/19 06:55:26;;;;;;;1.57;0.70;;;;;;;;;;5019992;28;20330;-76
2023/04/19 06:57:51;;;;;;;1.92;0.75;;;;;;;;;;5007274;28;20336;-76
2023/04/19 07:00:17;;;;;;;2.43;0.70;;;;;;;;;;4999395;28;20041;-75
2023/04/19 07:02:42;;;;;;;1.05;0.60;;;;;;;;;;5017863;28;20988;-75
2023/04/19 07:05:08;;;;;;;1.88;0.63;;;;;;;;;;5016633;28;20117;-76
2023/04/19 07:07:33;;;;;;;2.45;0.70;;;;;;;;;;5029273;28;20026;-77
2023/04/19 07:09:58;;;;;;;1.63;0.50;;;;;;;;;;5009577;28;20116;-75
2023/04/19 07:12:23;;;;;;;1.10;0.60;;;;;;;;;;4998585;28;20277;-74
2023/04/19 07:14:49;;;;;;;3.00;0.60;;;;;;;;;;5022450;28;20033;-78
2023/04/19 07:17:14;;;;;;;1.88;0.88;;;;;;;;;;5002186;28;20065;-75
2023/04/19 07:19:39;;;;;;;1.35;0.63;;;;;;;;;;5015062;28;20072;-76
2023/04/19 07:22:05;;;;;;;2.63;0.90;;;;;;;;;;4982273;28;20046;-77
2023/04/19 07:24:30;;;;;;;3.03;0.70;;;;;;;;;;4994766;28;20058;-76
2023/04/19 07:26:56;;;;;;;4.20;1.00;;;;;;;;;;5010532;28;20041;-77
2023/04/19 07:29:21;;;;;;;2.28;0.90;;;;;;;;;;5023638;28;20180;-77
2023/04/19 07:31:46;;;;;;;1.60;1.00;;;;;;;;;;5003962;28;20634;-76
2023/04/19 07:34:12;;;;;;;1.57;0.87;;;;;;;;;;4981781;28;20296;-76
2023/04/19 07:36:37;;;;;;;2.03;0.80;;;;;;;;;;4993029;28;20304;-75
2023/04/19 07:39:03;;;;;;;3.80;1.08;;;;;;;;;;5012757;28;20272;-75
2023/04/19 07:41:29;;;;;;;1.83;0.90;;;;;;;;;;5016120;28;20041;-76
2023/04/19 07:43:54;;;;;;;1.92;0.90;;;;;;;;;;5016927;28;20038;-76
2023/04/19 07:46:19;;;;;;;3.37;1.00;;;;;;;;;;5013972;28;20034;-76
2023/04/19 07:48:45;;;;;;;2.53;1.07;;;;;;;;;;5009365;28;20268;-76
2023/04/19 07:51:11;;;;;;;3.08;1.30;;;;;;;;;;5022968;28;20187;-76
2023/04/19 07:53:36;;;;;;;1.88;0.90;;;;;;;;;;5007760;28;20108;-76
2023/04/19 07:56:02;;;;;;;1.80;0.85;;;;;;;;;;5005629;28;20033;-76
2023/04/19 07:58:27;;;;;;;2.10;1.13;;;;;;;;;;5002615;28;20496;-76
2023/04/19 08:00:52;;;;;;;3.03;1.13;;;;;;;;;;5021758;28;20073;-76
2023/04/19 08:03:18;;;;;;;3.17;0.93;;;;;;;;;;5003361;28;20296;-76
2023/04/19 08:05:43;;;;;;;3.40;1.03;;;;;;;;;;5020491;28;20033;-76
2023/04/19 08:08:08;;;;;;;3.97;1.50;;;;;;;;;;4991196;28;20088;-75
2023/04/19 08:10:34;;;;;;;2.93;1.10;;;;;;;;;;4999317;28;20033;-75
2023/04/19 08:12:59;;;;;;;3.67;1.13;;;;;;;;;;5021399;28;20073;-75
2023/04/19 08:15:25;;;;;;;3.50;1.20;;;;;;;;;;5017275;28;20504;-76
2023/04/19 08:17:50;;;;;;;3.40;1.20;;;;;;;;;;5028884;28;20284;-76
2023/04/19 08:20:16;;;;;;;2.60;1.10;;;;;;;;;;5004534;28;20124;-75
2023/04/19 08:22:41;;;;;;;1.85;1.10;;;;;;;;;;5028549;28;20136;-75
2023/04/19 08:25:07;;;;;;;2.37;1.20;;;;;;;;;;5016481;28;20105;-75
2023/04/19 08:27:32;;;;;;;1.98;1.30;;;;;;;;;;5030514;28;20069;-76
2023/04/19 08:29:57;;;;;;;2.03;1.17;;;;;;;;;;5017491;28;20368;-75
2023/04/19 08:32:23;;;;;;;1.80;1.07;;;;;;;;;;5022465;28;20288;-75
2023/04/19 08:34:48;;;;;;;1.90;1.00;;;;;;;;;;5007660;28;20034;-75
2023/04/19 08:37:14;;;;;;;1.65;1.10;;;;;;;;;;5011957;28;20383;-75
2023/04/19 08:39:39;;;;;;;3.05;1.35;;;;;;;;;;5016833;28;20029;-77
2023/04/19 08:42:05;;;;;;;2.33;1.20;;;;;;;;;;5027025;28;20119;-76
2023/04/19 08:44:31;;;;;;;2.08;1.05;;;;;;;;;;5012695;28;20426;-76
2023/04/19 08:46:56;;;;;;;2.87;1.03;;;;;;;;;;5015517;28;20041;-75
2023/04/19 08:49:21;;;;;;;1.98;1.02;;;;;;;;;;5012949;28;21070;-76
2023/04/19 08:51:48;;;;;;;2.83;1.40;;;;;;;;;;5007416;28;20421;-77
2023/04/19 08:54:13;;;;;;;3.70;1.30;;;;;;;;;;5007820;28;20037;-76
2023/04/19 08:56:38;;;;;;;1.70;0.90;;;;;;;;;;5019805;28;20080;-76
2023/04/19 08:59:03;;;;;;;2.73;1.30;;;;;;;;;;5008650;28;20034;-76
2023/04/19 09:01:28;;;;;;;2.20;1.40;;;;;;;;;;5025505;28;21032;-74
2023/04/19 09:03:54;;;;;;;2.60;1.23;;;;;;;;;;5026365;28;20460;-75
2023/04/19 09:06:19;;;;;;;3.93;1.40;;;;;;;;;;5025806;28;20073;-75
2023/04/19 09:08:44;;;;;;;1.60;1.10;;;;;;;;;;5014611;28;20285;-75
2023/04/19 09:11:09;;;;;;;1.80;1.30;;;;;;;;;;5024168;28;20067;-75
2023/04/19 09:13:39;;;;;;;2.28;1.30;;;;;;;;;;5017086;28;20037;-75
2023/04/19 09:16:06;;;;;;;2.35;1.10;;;;;;;;;;5024340;28;20053;-75
2023/04/19 09:18:31;;;;;;;3.17;1.20;;;;;;;;;;5007669;28;20099;-76
2023/04/19 09:20:57;;;;;;;3.53;1.20;;;;;;;;;;5026046;28;20037;-75
2023/04/19 09:23:24;;;;;;;1.80;1.10;;;;;;;;;;5025598;28;20087;-75
2023/04/19 09:26:03;;;;;;;2.00;1.10;;;;;;;;;;5012231;28;20331;-76
2023/04/19 09:28:28;;;;;;;2.20;1.23;;;;;;;;;;5008990;28;20040;-76
2023/04/19 09:30:54;;;;;;;2.83;1.20;;;;;;;;;;5024296;28;20119;-76
2023/04/19 09:33:38;;;;;;;2.75;1.30;;;;;;;;;;5012391;28;20038;-76
2023/04/19 09:36:03;;;;;;;3.72;1.38;;;;;;;;;;5025152;28;20125;-76
2023/04/19 09:38:28;;;;;;;3.70;1.52;;;;;;;;;;5024629;28;20231;-76
2023/04/19 09:41:06;;;;;;;2.50;1.50;;;;;;;;;;4991211;28;20053;-76
2023/04/19 09:43:32;;;;;;;2.75;1.15;;;;;;;;;;5023191;28;20375;-76
2023/04/19 09:45:57;;;;;;;2.33;1.30;;;;;;;;;;4984623;28;20117;-77
2023/04/19 09:48:22;;;;;;;2.93;1.20;;;;;;;;;;5020556;28;20084;-76
2023/04/19 09:50:57;;;;;;;2.40;1.37;;;;;;;;;;5003224;28;20077;-76
2023/04/19 09:53:23;;;;;;;1.83;1.30;;;;;;;;;;4994384;28;20133;-76
2023/04/19 09:55:48;;;;;;;2.28;1.40;;;;;;;;;;4998727;28;20093;-76
2023/04/19 09:58:14;;;;;;;1.98;1.40;;;;;;;;;;5006200;28;20005;-76
2023/04/19 10:00:46;;;;;;;1.90;1.13;;;;;;;;;;5003942;28;20028;-76
2023/04/19 10:03:12;;;;;;;2.58;1.23;;;;;;;;;;5004134;28;20484;-76
2023/04/19 10:05:38;;;;;;;1.90;1.40;;;;;;;;;;5018059;28;20005;-76
2023/04/19 10:08:03;;;;;;;2.53;1.20;;;;;;;;;;5000374;28;20087;-76
2023/04/19 10:10:29;;;;;;;1.50;1.20;;;;;;;;;;5015070;28;20025;-76
2023/04/19 10:12:54;;;;;;;1.70;1.08;;;;;;;;;;5004044;28;20013;-75
2023/04/19 10:15:21;;;;;;;1.57;1.20;;;;;;;;;;5004702;28;20029;-76
2023/04/19 10:17:46;;;;;;;2.42;1.20;;;;;;;;;;5004326;28;20252;-75
2023/04/19 10:20:16;;;;;;;2.10;1.20;;;;;;;;;;4984442;28;20972;-76
2023/04/19 10:22:41;;;;;;;2.08;1.25;;;;;;;;;;5000681;28;20029;-76
2023/04/19 10:25:07;;;;;;;2.07;1.30;;;;;;;;;;4981851;28;20045;-75
2023/04/19 10:27:33;;;;;;;2.10;1.10;;;;;;;;;;4987903;28;20386;-76
2023/04/19 10:30:04;;;;;;;1.63;1.00;;;;;;;;;;5000836;28;20018;-76
2023/04/19 10:32:35;;;;;;;1.42;1.10;;;;;;;;;;4969216;28;20035;-76
2023/04/19 10:35:03;;;;;;;2.53;1.17;;;;;;;;;;4996961;28;20149;-75
2023/04/19 10:37:29;;;;;;;1.92;1.10;;;;;;;;;;5002058;28;20026;-75
2023/04/19 10:39:54;;;;;;;2.95;1.30;;;;;;;;;;4998413;28;20026;-75
2023/04/19 10:42:19;;;;;;;1.93;1.40;;;;;;;;;;4999073;28;20253;-75
2023/04/19 10:45:03;;;;;;;1.85;1.20;;;;;;;;;;5001974;28;20280;-75
2023/04/19 10:47:44;;;;;;;1.60;1.02;;;;;;;;;;5000461;28;20121;-76
2023/04/19 10:50:09;;;;;;;2.25;1.40;;;;;;;;;;5000396;28;20038;-76
2023/04/19 10:52:34;;;;;;;2.95;1.30;;;;;;;;;;5000617;28;20034;-77
2023/04/19 10:55:00;;;;;;;2.40;1.30;;;;;;;;;;5000214;28;20109;-76
2023/04/19 10:57:26;;;;;;;2.00;1.13;;;;;;;;;;4998409;28;20811;-76
2023/04/19 11:00:10;;;;;;;1.90;1.40;;;;;;;;;;5000629;28;20029;-76
2023/04/19 11:02:35;;;;;;;1.80;1.35;;;;;;;;;;5002113;28;20156;-76
2023/04/19 11:05:01;;;;;;;1.87;1.17;;;;;;;;;;5002073;28;20463;-77
2023/04/19 11:07:26;;;;;;;2.22;1.10;;;;;;;;;;5001627;28;20596;-77
2023/04/19 11:09:51;;;;;;;1.55;1.00;;;;;;;;;;5001996;28;20038;-77
2023/04/19 11:12:17;;;;;;;1.80;1.20;;;;;;;;;;5002518;28;20405;-75
2023/04/19 11:14:53;;;;;;;2.85;1.25;;;;;;;;;;5001711;28;20293;-77
2023/04/19 11:17:19;;;;;;;2.30;1.25;;;;;;;;;;5004718;28;20496;-76
2023/04/19 11:19:54;;;;;;;1.73;1.20;;;;;;;;;;5004928;28;20070;-76
2023/04/19 11:22:32;;;;;;;2.50;1.10;;;;;;;;;;5006383;28;20049;-76
2023/04/19 11:25:04;;;;;;;2.15;1.00;;;;;;;;;;5016872;28;20088;-76
2023/04/19 11:27:29;;;;;;;2.65;1.20;;;;;;;;;;5025794;28;20034;-76
2023/04/19 11:30:00;;;;;;;1.67;1.13;;;;;;;;;;5007560;28;20068;-76
2023/04/19 11:32:26;;;;;;;2.63;1.30;;;;;;;;;;5018551;28;20398;-76
2023/04/19 11:34:51;;;;;;;1.80;1.10;;;;;;;;;;5024777;28;20101;-75
2023/04/19 11:37:16;;;;;;;2.40;1.20;;;;;;;;;;4990751;28;20291;-76
2023/04/19 11:39:46;;;;;;;1.80;1.40;;;;;;;;;;5006731;28;20302;-76
2023/04/19 11:42:20;;;;;;;3.17;1.13;;;;;;;;;;5006933;28;20379;-76
2023/04/19 11:44:49;;;;;;;1.38;0.98;;;;;;;;;;5024472;28;20017;-76
2023/04/19 11:47:15;;;;;;;1.70;0.80;;;;;;;;;;5007012;28;20033;-76
2023/04/19 11:49:40;;;;;;;1.80;1.00;;;;;;;;;;4988568;28;20528;-76
2023/04/19 11:52:06;;;;;;;1.97;1.20;;;;;;;;;;5006633;28;20036;-76
2023/04/19 11:54:31;;;;;;;1.70;1.13;;;;;;;;;;5006844;28;20108;-76
2023/04/19 11:57:03;;;;;;;2.50;1.15;;;;;;;;;;4987922;28;20667;-76
2023/04/19 11:59:29;;;;;;;1.90;1.30;;;;;;;;;;5006589;28;20025;-75
2023/04/19 12:01:54;;;;;;;2.10;0.90;;;;;;;;;;5006528;28;20045;-76
2023/04/19 12:04:20;;;;;;;1.27;1.00;;;;;;;;;;5006871;28;20029;-76
2023/04/19 12:06:53;;;;;;;1.35;1.05;;;;;;;;;;5002440;28;20512;-76
2023/04/19 12:09:19;;;;;;;2.05;1.13;;;;;;;;;;4989152;28;20041;-76
2023/04/19 12:11:45;;;;;;;1.80;1.08;;;;;;;;;;4986750;28;20109;-78
2023/04/19 12:14:21;;;;;;;2.05;1.30;;;;;;;;;;5002393;28;20221;-76
2023/04/19 12:17:02;;;;;;;1.73;1.23;;;;;;;;;;5007352;28;20143;-76
2023/04/19 12:19:27;;;;;;;2.25;1.35;;;;;;;;;;5006992;28;20532;-77
2023/04/19 12:21:52;;;;;;;2.03;1.13;;;;;;;;;;5006928;28;20073;-75
2023/04/19 12:24:17;;;;;;;1.43;1.20;;;;;;;;;;5021733;28;20552;-77
2023/04/19 12:26:55;;;;;;;1.93;1.23;;;;;;;;;;4985790;28;20288;-76
2023/04/19 12:29:21;;;;;;;2.33;1.25;;;;;;;;;;4994686;28;20698;-76
2023/04/19 12:31:46;;;;;;;1.10;0.80;;;;;;;;;;5006244;28;20069;-76
2023/04/19 12:34:11;;;;;;;1.52;1.00;;;;;;;;;;5006537;28;20291;-76
2023/04/19 12:36:36;;;;;;;1.73;1.00;;;;;;;;;;5006431;28;20026;-76
2023/04/19 12:39:02;;;;;;;1.60;1.23;;;;;;;;;;4990420;28;20447;-77
2023/04/19 12:41:28;;;;;;;2.00;1.10;;;;;;;;;;5004184;28;20336;-76
2023/04/19 12:43:53;;;;;;;1.73;1.13;;;;;;;;;;4986642;28;20547;-76
2023/04/19 12:46:18;;;;;;;1.40;0.88;;;;;;;;;;5000427;28;20040;-76
2023/04/19 12:48:43;;;;;;;1.77;1.17;;;;;;;;;;5006105;28;20030;-76
2023/04/19 12:51:09;;;;;;;1.80;1.27;;;;;;;;;;5023761;28;20353;-75
2023/04/19 12:53:34;;;;;;;1.83;1.27;;;;;;;;;;5005761;28;20384;-76
2023/04/19 12:55:59;;;;;;;1.63;1.10;;;;;;;;;;4989189;28;20057;-76
2023/04/19 12:58:26;;;;;;;1.27;0.97;;;;;;;;;;4982755;28;20428;-76
2023/04/19 13:00:52;;;;;;;2.22;1.10;;;;;;;;;;5000349;28;20394;-76
2023/04/19 13:03:17;;;;;;;1.53;1.17;;;;;;;;;;5000218;28;20547;-76
2023/04/19 13:05:42;;;;;;;1.63;1.08;;;;;;;;;;4970840;28;20611;-76
2023/04/19 13:08:07;;;;;;;1.73;1.00;;;;;;;;;;4999914;28;20124;-77
2023/04/19 13:10:33;;;;;;;2.03;1.20;;;;;;;;;;4971041;28;20292;-76
2023/04/19 13:12:59;;;;;;;1.30;1.00;;;;;;;;;;5006088;28;20512;-76
2023/04/19 13:15:24;;;;;;;2.10;1.30;;;;;;;;;;5006064;28;20107;-77
2023/04/19 13:17:50;;;;;;;2.00;1.30;;;;;;;;;;4999802;28;20448;-76
2023/04/19 13:20:19;;;;;;;1.33;0.80;;;;;;;;;;5024138;28;20295;-77
2023/04/19 13:22:45;;;;;;;1.52;1.05;;;;;;;;;;5005655;28;20040;-77
2023/04/19 13:25:10;;;;;;;2.08;1.20;;;;;;;;;;5005910;28;20042;-74
2023/04/19 13:27:35;;;;;;;1.65;1.30;;;;;;;;;;5005593;28;20653;-76
2023/04/19 13:30:00;;;;;;;2.15;1.25;;;;;;;;;;4989624;28;20048;-77
2023/04/19 13:32:26;;;;;;;1.87;1.07;;;;;;;;;;5003856;28;20496;-76
2023/04/19 13:34:51;;;;;;;1.50;1.00;;;;;;;;;;5005014;28;20051;-77
2023/04/19 13:37:16;;;;;;;1.65;1.10;;;;;;;;;;5005566;28;20316;-76
2023/04/19 13:39:41;;;;;;;1.50;1.20;;;;;;;;;;5006045;28;20445;-75
2023/04/19 13:42:07;;;;;;;1.77;1.10;;;;;;;;;;4985425;28;20289;-75
2023/04/19 13:44:32;;;;;;;8.35;1.98;;;;;;;;;;4985942;28;20465;-72
2023/04/19 13:46:57;;;;;;;5.18;1.50;;;;;;;;;;4985171;28;20107;-73
2023/04/19 13:49:23;;;;;;;3.95;1.45;;;;;;;;;;5003930;28;20034;-73
2023/04/19 13:51:48;;;;;;;3.80;1.70;;;;;;;;;;4984083;28;20040;-72
2023/04/19 13:54:16;;;;;;;5.03;1.35;;;;;;;;;;5004408;28;20037;-72
2023/04/19 13:56:41;;;;;;;3.45;1.23;;;;;;;;;;5004135;28;20363;-73
2023/04/19 13:59:06;;;;;;;2.93;1.27;;;;;;;;;;5004839;28;20041;-72
2023/04/19 14:01:31;;;;;;;3.53;1.27;;;;;;;;;;5022410;28;20335;-75
2023/04/19 14:03:57;;;;;;;3.20;1.20;;;;;;;;;;5022666;28;20273;-73
2023/04/19 14:06:22;;;;;;;2.60;1.20;;;;;;;;;;5022227;28;20060;-73
2023/04/19 14:08:50;;;;;;;3.80;1.23;;;;;;;;;;5016045;28;20281;-74
2023/04/19 14:11:16;;;;;;;2.38;1.20;;;;;;;;;;4984747;28;20284;-73
2023/04/19 14:13:42;;;;;;;3.17;1.50;;;;;;;;;;5015370;28;20034;-74
2023/04/19 14:16:08;;;;;;;2.75;1.20;;;;;;;;;;5018365;28;20041;-73
2023/04/19 14:18:33;;;;;;;5.77;1.60;;;;;;;;;;5007748;28;20038;-73
2023/04/19 14:20:58;;;;;;;6.93;1.50;;;;;;;;;;4997157;28;20041;-72
2023/04/19 14:23:23;;;;;;;9.25;1.98;;;;;;;;;;5022542;28;20033;-73
2023/04/19 14:25:49;;;;;;;5.37;1.77;;;;;;;;;;5010305;28;20605;-74
2023/04/19 14:28:14;;;;;;;8.18;1.67;;;;;;;;;;5023750;28;20564;-77
2023/04/19 14:30:39;;;;;;;12.27;1.60;;;;;;;;;;5015799;28;20030;-71
2023/04/19 14:33:04;;;;;;;6.75;1.63;;;;;;;;;;5010622;28;20273;-72
2023/04/19 14:35:30;;;;;;;5.90;1.57;;;;;;;;;;5015580;28;20079;-72